My Meet Scores
Hailey Hollock, Flipstar Gymnastics Academy - MyMeetScores.com
Top100 | Top Teams | Upcoming Meets | Completed Meets | Latest | Add Scores | Help| Support | Bookmark and Share

Hailey Hollock, Flipstar Gymnastics Academy
Personal Bests
LevelVault BarsBeamFloorAA
39.5759.475 9.7009.77538.025
49.0508.950 9.7509.45036.500
Meet Scores
Date Meet Team Session Level Division Vault Bars Beam Floor AA
2020-03-06 Illinois Level 4 State Championships Flipstar Gymnastics Academy 2 4 Ch E 9.050 11T 8.400 22 9.750 3 9.300 14 36.500 10
2020-02-21 Kinetic Classic Flipstar Gymnastics Academy 06 4 Younger 8.400 55* 8.200 68T 9.525 6 9.275 16T 35.400 46T
2020-02-14 Big Classic Flipstar Gymnastics Academy 4B 4 Child B 8.500 30T 8.275 48 9.250 24T 9.375 12T 35.400 30
2020-01-30 Circle of Stars Flipstar Gymnastics Academy D02 4 Jr B 8.550 19 8.300 20 9.525 3 9.300 8T 35.675 13
2020-01-24 Sand Dollar Invitational 2020 Flipstar Gymnastics Academy E02 4 Jr A 8.750 3 8.200 11T 9.450 4 8.700 11 35.100 9
2019-12-13 Crossroads Classic Flipstar Gymnastics Academy 1 4 Ch A 8.550 9T 8.550 13 9.400 1 9.325 2 35.825 6
2019-12-07 Home for the Holidays 2019 Flipstar Gymnastics Academy 4 4 Jr B 8.550 9T 8.950 6 9.200 1 9.450 1 36.150 2
2019-11-08 Illinois Judges Cup Flipstar Gymnastics Academy G5 4 All Ages 8.700 9T 8.350 37 9.525 2 8.750 23T 35.325 20
2019-03-08 2019 Illinois Level 3 State Championship Flipstar Gymnastics Academy All 3 Ch F 9.575 3T 9.075 21 9.475 3 9.650 1 37.775 6
2019-02-23 Kinetic Classic 2019 Flipstar Gymnastics Academy 1 3 Younger 9.450 1 9.100 13T 9.500 1 9.650 1 37.700 1
2019-02-08 Midwest Twisters Harley Meet Womens Flipstar Gymnastics Academy T06 3 8 a 9.500 2 9.325 2 8.625 11 9.450 1 36.900 1T
2019-01-25 King Arthur Invitational Flipstar Gymnastics Academy 6 3 JR B 9.425 4 9.475 1 9.600 2 9.525 1T 38.025 1
2019-01-11 Circle of Stars Gymnastics Flipstar Gymnastics Academy D04 3 Junior B 9.375 5 9.150 3 9.700 1 9.775 2 38.000 2
2018-12-13 2018 Atlantis Crown Invitational Flipstar Gymnastics Academy 05 3 7-8 yrs 9.250 3T 9.075 3 9.550 2 9.575 1T 37.450 1
2018-12-07 Horton Invite Flipstar Gymnastics Academy All 3 Chr B 9.450 6T 9.000 10T 9.400 1 9.550 2T 37.400 3
2018-05-03 Illinois USA Gymnastics Level 3 State Championships Flipstar Gymnastics Academy 8 3 Ch B 9.400 11T 9.150 12T 9.375 5 9.400 8 37.325 7
2018-02-23 Kinetic Classic Flipstar Gymnastics Academy 4 3 Younger 8.900 51T 8.950 64T 9.125 35T 9.300 36T 36.275 48T
2018-02-16 Big Classic Flipstar Gymnastics Academy 6B 3 Child A 9.125 5T 9.100 7 9.200 5 9.300 6T 36.725 6
2018-02-09 IGI Chicago Style Gymnastics Meet Flipstar Gymnastics Academy 42 3 631 LaSalle L3 A 8.650 18 8.550 12 9.250 3 9.075 8 35.525 8
2018-01-26 King Arthur Invitational Flipstar Gymnastics Academy 5 3 JRA 9.075 17 8.450 18T 8.600 17 8.900 12 35.025 13
2018-01-19 Sand Dollar/ Whitlow Invitational Flipstar Gymnastics Academy E11 3 Jr A 8.750 12T 7.800 16 8.225 18 8.575 12T 33.350 16
2017-12-08 Horton Invite At IWU Shirk Center Flipstar Gymnastics Academy All 3 Ch A 9.050 18 7.750 20 8.800 4T 8.850 4 34.450 12
2017-11-17 SCGA Classic Flipstar Gymnastics Academy 1 3 Child 8.425 15 8.575 9 7.500 15 9.125 1 33.625 9
2017-11-10 Illinois NAWGJ Judges Cup 2017 Flipstar Gymnastics Academy S6 3 All Ages 8.650 61 7.800 47T 9.050 7 8.950 25T 34.450 30T
Get your scores on
a t-shirt, pin, or hoodie

www.lazysuits.com